createdAt,value
2022-08-28T00:04:29.095Z,54.36
2022-08-28T00:10:31.556Z,54.36
2022-08-28T00:16:33.978Z,54.00
2022-08-28T00:22:38.318Z,54.51
2022-08-28T00:28:40.044Z,54.08
2022-08-28T00:34:41.760Z,53.99
2022-08-28T00:40:44.732Z,54.47
2022-08-28T00:46:48.871Z,54.38
2022-08-28T00:52:55.413Z,54.00
2022-08-28T00:59:02.986Z,54.29
2022-08-28T01:05:09.627Z,54.27
2022-08-28T01:11:13.819Z,53.95
2022-08-28T01:17:18.578Z,54.42
2022-08-28T01:23:52.094Z,53.90
2022-08-28T01:29:54.020Z,54.19
2022-08-28T01:35:56.211Z,54.26
2022-08-28T01:41:59.725Z,54.42
2022-08-28T01:48:01.551Z,54.36
2022-08-28T01:54:03.372Z,53.88
2022-08-28T02:00:06.249Z,53.80
2022-08-28T02:06:08.122Z,53.86
2022-08-28T02:12:10.224Z,54.02
2022-08-28T02:18:12.308Z,54.39
2022-08-28T02:24:15.072Z,54.04
2022-08-28T02:30:17.815Z,53.76
2022-08-28T02:36:19.727Z,53.90
2022-08-28T02:42:22.880Z,54.01
2022-08-28T02:48:29.967Z,53.93
2022-08-28T02:54:31.684Z,54.12
2022-08-28T03:00:33.993Z,54.39
2022-08-28T03:06:35.771Z,54.02
2022-08-28T03:12:38.541Z,54.52
2022-08-28T03:18:41.561Z,53.95
2022-08-28T03:24:45.181Z,54.22
2022-08-28T03:30:47.785Z,53.89
2022-08-28T03:36:49.751Z,53.91
2022-08-28T03:42:53.127Z,54.72
2022-08-28T03:48:56.148Z,54.89
2022-08-28T03:54:58.140Z,54.33
2022-08-28T04:00:59.988Z,55.30
2022-08-28T04:07:01.824Z,56.72
2022-08-28T04:13:03.681Z,56.53
2022-08-28T04:19:05.410Z,56.54
2022-08-28T04:25:08.418Z,56.94
2022-08-28T04:31:10.317Z,55.57
2022-08-28T04:37:12.462Z,53.61
2022-08-28T04:43:14.229Z,53.20
2022-08-28T04:49:16.332Z,52.06
2022-08-28T04:55:18.329Z,52.31
2022-08-28T05:01:35.730Z,52.59
2022-08-28T05:07:37.503Z,52.54
2022-08-28T05:13:39.769Z,52.92
2022-08-28T05:19:42.470Z,52.41
2022-08-28T05:25:47.751Z,51.20
2022-08-28T05:31:49.563Z,51.41
2022-08-28T05:37:52.710Z,50.46
2022-08-28T05:43:54.522Z,51.11
2022-08-28T05:49:56.410Z,51.49
2022-08-28T05:55:58.083Z,51.42
2022-08-28T06:02:04.001Z,51.68
2022-08-28T06:08:06.272Z,51.39
2022-08-28T06:14:10.487Z,51.27
2022-08-28T06:20:12.592Z,51.50
2022-08-28T06:26:14.401Z,51.37
2022-08-28T06:32:16.190Z,50.99
2022-08-28T06:38:19.267Z,51.18
2022-08-28T06:44:21.843Z,51.07
2022-08-28T06:50:23.564Z,51.02
2022-08-28T06:56:27.175Z,51.06
2022-08-28T07:02:29.043Z,51.07
2022-08-28T07:08:32.580Z,51.10
2022-08-28T07:14:34.660Z,50.86
2022-08-28T07:20:36.387Z,51.33
2022-08-28T07:26:41.151Z,51.29
2022-08-28T07:32:43.591Z,51.42
2022-08-28T07:38:45.436Z,51.54
2022-08-28T07:44:50.452Z,51.09
2022-08-28T07:50:52.319Z,51.22
2022-08-28T07:56:54.261Z,51.76
2022-08-28T08:02:55.985Z,51.38
2022-08-28T08:08:58.039Z,52.14
2022-08-28T08:14:59.745Z,51.95
2022-08-28T08:21:04.132Z,51.93
2022-08-28T08:27:06.841Z,52.20
2022-08-28T08:33:08.684Z,52.51
2022-08-28T08:39:10.413Z,52.06
2022-08-28T08:45:20.837Z,52.70
2022-08-28T08:51:34.599Z,52.71
2022-08-28T08:57:38.599Z,52.71
2022-08-28T09:04:00.668Z,52.63
2022-08-28T09:10:02.729Z,53.03
2022-08-28T09:16:14.049Z,52.65
2022-08-28T09:22:16.235Z,52.84
2022-08-28T09:28:36.214Z,52.98
2022-08-28T09:34:39.244Z,53.39
2022-08-28T09:40:59.572Z,53.13
2022-08-28T09:47:01.304Z,52.86
2022-08-28T09:53:11.886Z,53.11
2022-08-28T09:59:16.955Z,53.05
2022-08-28T10:05:29.174Z,52.99
2022-08-28T10:11:49.647Z,52.98
2022-08-28T10:18:11.250Z,53.58
2022-08-28T10:24:16.077Z,53.58
2022-08-28T10:30:30.505Z,53.56
2022-08-28T10:36:35.365Z,53.37
2022-08-28T10:42:47.300Z,53.47
2022-08-28T10:49:04.244Z,53.92
2022-08-28T10:55:11.520Z,53.89
2022-08-28T11:01:18.308Z,53.87
2022-08-28T11:07:33.107Z,54.35
2022-08-28T11:13:57.651Z,53.97
2022-08-28T11:20:15.894Z,53.75
2022-08-28T11:26:30.556Z,54.03
2022-08-28T11:32:34.166Z,54.17
2022-08-28T11:38:42.016Z,54.29
2022-08-28T11:44:46.041Z,54.31
2022-08-28T11:51:06.996Z,54.70
2022-08-28T11:57:21.909Z,54.78
2022-08-28T12:03:55.580Z,54.61
2022-08-28T12:10:01.782Z,54.64
2022-08-28T12:16:07.676Z,54.92
2022-08-28T12:22:24.908Z,54.80
2022-08-28T12:28:31.948Z,54.77
2022-08-28T12:34:50.601Z,54.94
2022-08-28T12:40:53.507Z,54.74
2022-08-28T12:46:55.624Z,55.19
2022-08-28T12:53:01.087Z,55.06
2022-08-28T12:59:33.915Z,54.97
2022-08-28T13:05:41.307Z,55.09
2022-08-28T13:11:51.771Z,55.09
2022-08-28T13:17:53.930Z,55.44
2022-08-28T13:23:58.237Z,55.53
2022-08-28T13:30:20.267Z,55.39
2022-08-28T13:36:24.864Z,55.58
2022-08-28T13:42:26.602Z,55.48
2022-08-28T13:48:28.577Z,55.18
2022-08-28T13:54:30.740Z,55.51
2022-08-28T14:00:38.543Z,55.58
2022-08-28T14:06:44.155Z,55.43
2022-08-28T14:12:47.811Z,55.09
2022-08-28T14:18:49.499Z,54.97
2022-08-28T14:24:51.327Z,54.97
2022-08-28T14:30:53.289Z,55.13
2022-08-28T14:36:57.781Z,55.05
2022-08-28T14:42:59.489Z,54.94
2022-08-28T14:49:04.659Z,55.13
2022-08-28T14:55:06.745Z,55.40
2022-08-28T15:01:39.763Z,55.02
2022-08-28T15:07:42.718Z,55.37
2022-08-28T15:13:46.561Z,55.32
2022-08-28T15:19:48.403Z,55.49
2022-08-28T15:25:50.285Z,55.64
2022-08-28T15:31:53.466Z,55.16
2022-08-28T15:37:55.315Z,55.30
2022-08-28T15:44:00.947Z,55.39
2022-08-28T15:50:02.959Z,55.58
2022-08-28T15:56:07.522Z,55.54
2022-08-28T16:02:09.600Z,55.56
2022-08-28T16:08:12.730Z,55.19
2022-08-28T16:14:19.087Z,55.21
2022-08-28T16:20:22.595Z,55.41
2022-08-28T16:26:24.447Z,54.41
2022-08-28T16:32:26.260Z,55.35
2022-08-28T16:38:28.200Z,55.29
2022-08-28T16:44:30.111Z,55.42
2022-08-28T16:50:32.755Z,55.54
2022-08-28T16:56:34.717Z,55.61
2022-08-28T17:02:36.511Z,55.40
2022-08-28T17:08:38.832Z,55.44
2022-08-28T17:14:40.819Z,54.91
2022-08-28T17:21:01.068Z,55.02
2022-08-28T17:27:05.668Z,51.11
2022-08-28T17:33:07.852Z,48.98
2022-08-28T17:39:13.048Z,49.40
2022-08-28T17:45:15.442Z,47.27
2022-08-28T17:51:17.269Z,45.13
2022-08-28T17:57:21.311Z,47.66
2022-08-28T18:03:23.532Z,49.73
2022-08-28T18:09:25.381Z,50.65
2022-08-28T18:15:27.457Z,48.70
2022-08-28T18:21:29.644Z,50.23
2022-08-28T18:27:31.756Z,49.05
2022-08-28T18:33:34.384Z,49.08
2022-08-28T18:39:36.196Z,49.14
2022-08-28T18:45:40.520Z,51.41
2022-08-28T18:51:44.217Z,51.41
2022-08-28T18:57:46.088Z,51.77
2022-08-28T19:03:50.050Z,51.40
2022-08-28T19:09:51.913Z,52.08
2022-08-28T19:15:53.807Z,52.31
2022-08-28T19:21:55.519Z,51.83
2022-08-28T19:27:59.372Z,51.97
2022-08-28T19:34:02.003Z,52.23
2022-08-28T19:40:05.718Z,52.05
2022-08-28T19:46:10.178Z,52.73
2022-08-28T19:52:20.729Z,52.36
2022-08-28T19:58:22.487Z,52.06
2022-08-28T20:04:24.310Z,52.31
2022-08-28T20:10:27.232Z,52.51
2022-08-28T20:16:29.050Z,51.93
2022-08-28T20:22:32.042Z,52.18
2022-08-28T20:28:33.822Z,51.71
2022-08-28T20:34:35.662Z,52.52
2022-08-28T20:40:37.412Z,51.23
2022-08-28T20:46:41.679Z,52.69
2022-08-28T20:52:43.794Z,52.09
2022-08-28T20:58:45.491Z,52.69
2022-08-28T21:04:47.790Z,52.89
2022-08-28T21:10:52.148Z,53.24
2022-08-28T21:16:54.044Z,53.29
2022-08-28T21:22:55.998Z,53.84
2022-08-28T21:28:57.876Z,53.75
2022-08-28T21:35:01.124Z,53.65
2022-08-28T21:41:05.032Z,53.97
2022-08-28T21:47:06.841Z,54.21
2022-08-28T21:53:08.573Z,54.12
2022-08-28T21:59:10.467Z,54.38
2022-08-28T22:05:12.622Z,54.52
2022-08-28T22:11:15.726Z,54.67
2022-08-28T22:17:22.719Z,54.95
2022-08-28T22:23:25.381Z,54.89
2022-08-28T22:29:27.144Z,55.14
2022-08-28T22:35:29.315Z,55.16
2022-08-28T22:41:31.634Z,55.17
2022-08-28T22:47:33.429Z,55.00
2022-08-28T22:53:36.438Z,55.30
2022-08-28T22:59:38.282Z,55.39
2022-08-28T23:05:40.173Z,54.89
2022-08-28T23:11:41.901Z,55.33
2022-08-28T23:17:44.105Z,55.20
2022-08-28T23:23:46.022Z,55.60
2022-08-28T23:29:47.757Z,55.51
2022-08-28T23:35:55.135Z,55.55
2022-08-28T23:41:56.866Z,55.43
2022-08-28T23:47:58.602Z,55.58
2022-08-28T23:54:01.682Z,55.38
